createdAt,value
2019-06-15T00:01:35.569Z,101065.20
2019-06-15T00:04:09.585Z,101051.56
2019-06-15T00:06:44.614Z,101050.44
2019-06-15T00:09:37.383Z,101041.09
2019-06-15T00:12:24.576Z,101034.58
2019-06-15T00:14:58.739Z,101028.66
2019-06-15T00:17:32.952Z,101028.95
2019-06-15T00:20:27.664Z,101024.25
2019-06-15T00:23:08.227Z,101024.55
2019-06-15T00:25:42.311Z,101015.03
2019-06-15T00:28:29.643Z,101007.59
2019-06-15T00:31:05.149Z,100863.63
2019-06-15T00:33:39.563Z,100993.55
2019-06-15T00:36:25.243Z,100996.73
2019-06-15T00:38:59.389Z,100992.16
2019-06-15T00:41:33.481Z,100850.56
2019-06-15T00:44:19.364Z,100999.20
2019-06-15T00:46:53.474Z,100993.32
2019-06-15T00:49:27.652Z,100994.97
2019-06-15T00:52:02.965Z,100983.69
2019-06-15T00:54:54.381Z,100981.12
2019-06-15T00:57:29.062Z,100982.34
2019-06-15T01:00:02.983Z,100979.69
2019-06-15T01:02:35.447Z,100960.02
2019-06-15T01:05:20.678Z,100950.66
2019-06-15T01:07:54.731Z,100934.72
2019-06-15T01:10:30.893Z,100930.12
2019-06-15T01:13:04.448Z,100926.85
2019-06-15T01:15:36.993Z,100920.84
2019-06-15T01:18:11.297Z,100920.30
2019-06-15T01:20:45.311Z,100913.27
2019-06-15T01:23:33.436Z,100918.67
2019-06-15T01:26:07.365Z,100910.55
2019-06-15T01:28:40.743Z,100910.04
2019-06-15T01:31:17.521Z,100907.27
2019-06-15T01:33:52.240Z,100903.70
2019-06-15T01:36:39.021Z,100895.34
2019-06-15T01:39:31.556Z,100848.92
2019-06-15T01:42:06.518Z,100867.42
2019-06-15T01:44:40.435Z,100858.48
2019-06-15T01:47:14.251Z,100862.61
2019-06-15T01:49:48.683Z,100860.44
2019-06-15T01:52:23.649Z,100860.15
2019-06-15T03:40:01.525Z,100822.91
2019-06-15T03:42:36.161Z,100810.98
2019-06-15T03:45:11.243Z,100808.53
2019-06-15T03:48:32.468Z,100784.02
2019-06-15T03:51:05.690Z,100784.02
2019-06-15T03:53:39.554Z,100776.92
2019-06-15T03:56:21.718Z,100776.37
2019-06-15T03:59:31.590Z,100788.27
2019-06-15T04:02:05.168Z,100793.19
2019-06-15T04:04:38.921Z,100795.13
2019-06-15T04:07:12.141Z,100787.20
2019-06-15T04:09:44.763Z,100793.70
2019-06-15T04:12:22.567Z,100783.91
2019-06-15T04:14:56.200Z,100757.28
2019-06-15T04:17:30.123Z,100747.80
2019-06-15T04:20:06.559Z,100739.39
2019-06-15T04:22:40.066Z,100733.43
2019-06-15T04:25:13.398Z,100720.41
2019-06-15T04:27:46.952Z,100705.46
2019-06-15T04:30:20.760Z,100687.83
2019-06-15T04:32:57.329Z,100704.12
2019-06-15T04:35:31.173Z,100723.70
2019-06-15T04:38:04.721Z,100740.27
2019-06-15T04:40:42.776Z,100730.20
2019-06-15T04:43:15.984Z,100717.09
2019-06-15T04:47:01.145Z,100712.45
2019-06-15T04:49:34.936Z,100705.69
2019-06-15T04:53:50.665Z,100721.09
2019-06-15T05:09:53.164Z,100758.97
2019-06-15T05:12:27.440Z,100745.89
2019-06-15T05:15:13.232Z,100749.13
2019-06-15T05:17:47.290Z,100754.33
2019-06-15T05:21:58.933Z,100741.44
2019-06-15T05:24:32.156Z,100745.31
2019-06-15T05:27:06.818Z,100749.13
2019-06-15T05:29:40.471Z,100746.94
2019-06-15T05:32:14.007Z,100756.77
2019-06-15T05:34:48.165Z,100737.75
2019-06-15T05:37:22.796Z,100742.08
2019-06-15T05:39:56.843Z,100721.41
2019-06-15T05:42:31.176Z,100716.77
2019-06-15T06:29:45.863Z,100598.22
2019-06-15T06:32:19.437Z,100599.05
2019-06-15T06:34:59.079Z,100594.04
2019-06-15T06:37:33.012Z,100597.59
2019-06-15T06:40:08.170Z,100585.31
2019-06-15T06:42:43.735Z,100606.50
2019-06-15T06:45:18.014Z,100606.68
2019-06-15T06:47:51.635Z,100603.06
2019-06-15T06:50:25.160Z,100605.66
2019-06-15T06:52:58.365Z,100622.97
2019-06-15T06:55:42.041Z,100609.17
2019-06-15T06:58:14.253Z,100616.63
2019-06-15T07:01:05.778Z,100613.30
2019-06-15T07:03:39.394Z,100617.73
2019-06-15T07:06:14.076Z,100619.29
2019-06-15T07:09:00.733Z,100604.06
2019-06-15T07:11:37.510Z,100600.92
2019-06-15T07:14:25.324Z,100597.80
2019-06-15T07:17:08.573Z,100592.97
2019-06-15T07:19:47.361Z,100613.86
2019-06-15T07:22:30.774Z,100604.81
2019-06-15T07:25:04.431Z,100599.53
2019-06-15T07:27:38.056Z,100603.41
2019-06-15T07:30:12.484Z,100602.95
2019-06-15T07:32:45.406Z,100596.33
2019-06-15T07:35:19.040Z,100598.66
2019-06-15T07:37:57.618Z,100618.08
2019-06-15T07:40:30.848Z,100615.75
2019-06-15T07:43:03.943Z,100614.84
2019-06-15T07:45:38.484Z,100624.36
2019-06-15T07:48:23.957Z,100613.83
2019-06-15T07:51:01.945Z,100614.25
2019-06-15T07:53:36.536Z,100609.79
2019-06-15T07:56:23.065Z,100615.13
2019-06-15T07:58:57.354Z,100617.40
2019-06-15T08:01:42.856Z,100606.30
2019-06-15T08:04:17.490Z,100611.57
2019-06-15T08:06:50.830Z,100605.77
2019-06-15T08:09:52.830Z,100607.28
2019-06-15T08:12:48.617Z,100603.37
2019-06-15T08:15:21.747Z,100609.09
2019-06-15T08:17:56.287Z,100601.88
2019-06-15T08:20:33.927Z,100594.27
2019-06-15T08:23:26.641Z,100594.37
2019-06-15T08:26:00.631Z,100598.91
2019-06-15T08:28:40.266Z,100585.75
2019-06-15T08:31:12.136Z,100526.62
2019-06-15T08:33:46.800Z,100576.13
2019-06-15T08:36:39.273Z,100581.83
2019-06-15T08:39:14.897Z,100588.18
2019-06-15T08:41:51.219Z,100578.80
2019-06-15T08:44:25.664Z,100592.04
2019-06-15T08:47:01.475Z,100544.80
2019-06-15T08:49:48.446Z,100583.66
2019-06-15T08:52:21.825Z,100591.71
2019-06-15T08:55:29.952Z,100583.99
2019-06-15T08:59:12.398Z,100600.47
2019-06-15T09:01:45.754Z,100602.72
2019-06-15T09:04:19.069Z,100608.20
2019-06-15T09:06:59.131Z,100610.33
2019-06-15T09:20:12.628Z,100624.69
2019-06-15T09:23:06.556Z,100637.59
2019-06-15T09:25:51.775Z,100635.80
2019-06-15T09:28:27.397Z,100633.39
2019-06-15T09:31:20.745Z,100639.05
2019-06-15T09:33:54.507Z,100635.66
2019-06-15T09:36:28.855Z,100637.42
2019-06-15T09:39:15.969Z,100640.95
2019-06-15T09:41:51.683Z,100641.72
2019-06-15T09:44:37.820Z,100642.08
2019-06-15T09:47:12.421Z,100643.34
2019-06-15T09:49:51.713Z,100643.34
2019-06-15T09:52:43.386Z,100648.53
2019-06-15T09:55:20.826Z,100652.70
2019-06-15T09:58:02.467Z,100652.70
2019-06-15T10:09:34.583Z,100657.61
2019-06-15T10:12:27.242Z,100649.19
2019-06-15T10:15:01.256Z,100662.40
2019-06-15T10:17:34.787Z,100658.98
2019-06-15T10:20:09.692Z,100661.00
2019-06-15T10:22:44.252Z,100662.11
2019-06-15T10:25:31.008Z,100659.06
2019-06-15T10:28:23.109Z,100663.09
2019-06-15T10:31:00.615Z,100666.35
2019-06-15T10:33:33.059Z,100661.99
2019-06-15T10:36:19.945Z,100665.97
2019-06-15T10:39:06.723Z,100665.79
2019-06-15T10:41:41.562Z,100647.26
2019-06-15T10:44:15.464Z,100675.96
2019-06-15T10:46:49.397Z,100678.03
2019-06-15T10:49:23.316Z,100686.83
2019-06-15T10:52:09.839Z,100690.62
2019-06-15T10:54:44.107Z,100705.94
2019-06-15T10:57:17.960Z,100704.95
2019-06-15T10:59:57.647Z,100709.44
2019-06-15T11:02:29.905Z,100720.52
2019-06-15T15:14:17.367Z,101005.80
2019-06-15T15:17:00.294Z,101020.91
2019-06-15T15:19:36.073Z,101041.27
2019-06-15T15:22:29.816Z,101040.58
2019-06-15T15:25:03.377Z,101044.14
2019-06-15T15:27:57.113Z,101055.64
2019-06-15T15:30:39.311Z,101048.95
2019-06-15T15:33:33.050Z,101057.09
2019-06-15T15:36:19.522Z,101053.27
2019-06-15T15:38:56.075Z,101059.14
2019-06-15T15:41:33.496Z,101059.38
2019-06-15T15:44:18.758Z,101059.12
2019-06-15T15:47:10.356Z,101065.62
2019-06-15T15:49:43.880Z,101065.52
2019-06-15T15:52:17.867Z,101070.17
2019-06-15T15:54:51.461Z,101075.05
2019-06-15T15:57:26.629Z,101075.54
2019-06-15T16:00:21.044Z,101071.28
2019-06-15T16:03:07.646Z,101080.43
2019-06-15T16:05:47.102Z,101083.33
2019-06-15T16:08:24.768Z,101093.02
2019-06-15T16:11:03.787Z,101088.88
2019-06-15T16:13:43.091Z,101079.72
2019-06-15T16:16:36.578Z,101088.23
2019-06-15T16:19:22.412Z,101095.41
2019-06-15T16:22:08.258Z,101097.17
2019-06-15T16:24:41.643Z,101105.38
2019-06-15T16:27:15.978Z,101101.64
2019-06-15T16:29:49.870Z,101099.01
2019-06-15T16:32:26.433Z,101117.41
2019-06-15T16:35:16.484Z,101113.97
2019-06-15T16:37:53.155Z,101136.73
2019-06-15T16:40:46.783Z,101135.70
2019-06-15T16:43:26.244Z,101149.63
2019-06-15T16:45:59.494Z,101149.14
2019-06-15T16:48:32.714Z,101167.42
2019-06-15T16:51:06.857Z,101171.12
2019-06-15T16:53:41.388Z,101176.70
2019-06-15T16:56:26.881Z,101182.70
2019-06-15T16:59:18.301Z,101187.88
2019-06-15T17:01:52.570Z,101195.52
2019-06-15T17:04:26.903Z,101201.94
2019-06-15T17:07:00.117Z,101204.80
2019-06-15T17:09:36.056Z,101208.44
2019-06-15T17:12:08.813Z,101212.20
2019-06-15T17:14:43.098Z,101215.15
2019-06-15T17:17:17.342Z,101214.66
2019-06-15T17:19:51.135Z,101215.55
2019-06-15T17:22:25.443Z,101226.83
2019-06-15T17:25:05.956Z,101230.29
2019-06-15T17:27:42.526Z,101230.10
2019-06-15T17:30:17.301Z,101237.73
2019-06-15T17:32:50.616Z,101234.90
2019-06-15T17:35:24.164Z,101242.30
2019-06-15T17:38:07.016Z,101242.70
2019-06-15T17:40:41.607Z,101249.38
2019-06-15T17:43:27.897Z,101244.66
2019-06-15T17:46:07.399Z,101259.02
2019-06-15T17:48:59.851Z,101260.52
2019-06-15T17:51:36.799Z,101257.84
2019-06-15T17:54:11.769Z,101261.94
2019-06-15T17:56:46.203Z,101261.44
2019-06-15T17:59:38.181Z,101259.91
2019-06-15T18:02:12.577Z,101276.52
2019-06-15T18:04:56.540Z,101276.75
2019-06-15T18:07:29.610Z,101278.35
2019-06-15T18:10:17.100Z,101281.63
2019-06-15T18:13:10.224Z,101283.92
2019-06-15T18:15:42.727Z,101274.98
2019-06-15T18:18:16.737Z,101277.61
2019-06-15T18:21:11.930Z,101280.79
2019-06-15T18:23:47.438Z,101282.88
2019-06-15T18:26:21.064Z,101284.80
2019-06-15T18:28:54.709Z,101279.26
2019-06-15T18:31:28.031Z,101280.34
2019-06-15T18:34:09.442Z,101281.53
2019-06-15T18:36:39.678Z,101285.09
2019-06-15T18:39:16.536Z,101296.84
2019-06-15T18:41:52.992Z,101299.09
2019-06-15T18:44:33.263Z,101306.73
2019-06-15T18:47:08.589Z,101306.12
2019-06-15T18:49:42.115Z,101310.51
2019-06-15T18:52:18.284Z,101305.63
2019-06-15T18:54:56.984Z,101304.55
2019-06-15T18:57:30.968Z,101312.19
2019-06-15T19:00:07.170Z,101308.66
2019-06-15T19:02:40.167Z,101315.53
2019-06-15T19:05:13.908Z,101316.05
2019-06-15T19:07:47.221Z,101319.08
2019-06-15T19:10:30.163Z,101316.66
2019-06-15T19:13:03.948Z,101326.22
2019-06-15T19:15:38.270Z,101328.16
2019-06-15T19:18:25.997Z,101317.50
2019-06-15T19:21:00.207Z,101321.91
2019-06-15T19:23:35.920Z,101326.23
2019-06-15T19:26:08.680Z,101332.52
2019-06-15T19:28:46.075Z,101329.53
2019-06-15T19:31:19.630Z,101334.70
2019-06-15T19:33:56.819Z,101335.83
2019-06-15T19:36:30.194Z,101338.27
2019-06-15T19:39:06.162Z,101341.80
2019-06-15T19:41:41.258Z,101347.00
2019-06-15T19:44:32.166Z,101341.80
2019-06-15T19:47:54.156Z,101340.70
2019-06-15T19:50:39.482Z,101349.16
2019-06-15T19:53:13.721Z,101349.69
2019-06-15T19:56:06.803Z,101347.25
2019-06-15T19:58:42.445Z,101348.02
2019-06-15T20:01:19.986Z,101348.28
2019-06-15T20:03:57.495Z,101355.64
2019-06-15T20:06:37.045Z,101353.13
2019-06-15T20:09:12.986Z,101359.94
2019-06-15T20:11:59.629Z,101349.92
2019-06-15T20:14:32.983Z,101358.80
2019-06-15T20:17:24.659Z,101364.00
2019-06-15T20:19:57.901Z,101376.46
2019-06-15T20:22:31.438Z,101373.72
2019-06-15T20:25:06.586Z,101376.41
2019-06-15T20:27:41.466Z,101383.44
2019-06-15T20:30:16.949Z,101380.45
2019-06-15T20:33:03.174Z,101380.45
2019-06-15T20:35:46.897Z,101373.05
2019-06-15T20:38:20.294Z,101387.23
2019-06-15T20:40:56.414Z,101382.52
2019-06-15T20:43:48.472Z,101393.96
2019-06-15T20:46:22.290Z,101391.14
2019-06-15T20:48:57.124Z,101400.03
2019-06-15T20:51:30.651Z,101406.50
2019-06-15T20:54:06.985Z,101410.17
2019-06-15T20:56:41.428Z,101416.68
2019-06-15T20:59:16.958Z,101424.55
2019-06-15T21:01:51.411Z,101427.98
2019-06-15T21:04:26.712Z,101432.30
2019-06-15T21:07:01.429Z,101435.55
2019-06-15T21:09:53.025Z,101432.44
2019-06-15T21:12:26.945Z,101426.28
2019-06-15T21:15:25.781Z,101428.03
2019-06-15T21:18:09.652Z,101436.03
2019-06-15T21:20:47.013Z,101433.53
2019-06-15T21:23:21.562Z,101431.62
2019-06-15T21:25:59.684Z,101439.98
2019-06-15T21:28:33.762Z,101438.59
2019-06-15T21:31:07.731Z,101451.25
2019-06-15T21:34:00.341Z,101455.67
2019-06-15T21:36:53.550Z,101464.02
2019-06-15T21:39:27.501Z,101462.80
2019-06-15T21:42:00.701Z,101461.34
2019-06-15T21:44:36.210Z,101467.81
2019-06-15T21:47:13.706Z,101481.50
2019-06-15T21:49:59.019Z,101485.84
2019-06-15T21:52:32.531Z,101486.70
2019-06-15T21:55:07.016Z,101486.70
2019-06-15T21:57:40.820Z,101494.10
2019-06-15T22:00:17.902Z,101490.77
2019-06-15T22:02:53.426Z,101498.23
2019-06-15T22:05:26.999Z,101500.86
2019-06-15T22:08:00.958Z,101519.77
2019-06-15T22:10:47.206Z,101509.66
2019-06-15T22:13:37.269Z,101509.00
2019-06-15T22:16:29.892Z,101516.50
2019-06-15T22:19:07.717Z,101518.03
2019-06-15T22:21:41.330Z,101522.08
2019-06-15T22:24:16.267Z,101524.04
2019-06-15T22:26:59.588Z,101529.80
2019-06-15T22:29:36.463Z,101519.68
2019-06-15T22:32:10.050Z,101515.90
2019-06-15T22:34:47.126Z,101515.00
2019-06-15T22:37:20.695Z,101515.16
2019-06-15T22:39:56.203Z,101514.47
2019-06-15T22:42:36.486Z,101519.55
2019-06-15T22:45:17.622Z,101521.70
2019-06-15T22:47:51.121Z,101526.17
2019-06-15T22:50:24.432Z,101523.31
2019-06-15T22:52:57.656Z,101526.17
2019-06-15T22:55:43.314Z,101520.64
2019-06-15T22:58:18.065Z,101519.05
2019-06-15T23:01:05.881Z,101523.14
2019-06-15T23:03:38.553Z,101520.92
2019-06-15T23:06:11.785Z,101520.12
2019-06-15T23:08:47.116Z,101528.45
2019-06-15T23:11:22.325Z,101524.69
2019-06-15T23:13:57.542Z,101535.50
2019-06-15T23:16:31.346Z,101541.27
2019-06-15T23:19:07.738Z,101534.66
2019-06-15T23:21:41.480Z,101533.87
2019-06-15T23:24:16.623Z,101547.33
2019-06-15T23:26:50.682Z,101540.52
2019-06-15T23:29:23.954Z,101547.85
2019-06-15T23:32:03.296Z,101551.05
2019-06-15T23:34:56.487Z,101559.03
2019-06-15T23:37:30.310Z,101559.48
2019-06-15T23:40:26.957Z,101563.14
2019-06-15T23:43:00.032Z,101565.03
2019-06-15T23:45:36.097Z,101567.39
2019-06-15T23:48:09.737Z,101563.41
2019-06-15T23:50:43.394Z,101566.47
2019-06-15T23:53:18.679Z,101575.52
2019-06-15T23:55:50.487Z,101570.34
2019-06-15T23:58:37.199Z,101578.09
